Time;durP1;ratioP1;P1;durP2;ratioP2;P2;SDS_P1;SDS_P2;PMS_P1;PMS_P2;Temp;Humidity;BMP_temperature;BMP_pressure;BME280_temperature;BME280_humidity;BME280_pressure;Samples;Min_cycle;Max_cycle;Signal;HPM_P1;HPM_P2
2023/11/01 00:02:08;;;;;;;2.40;2.00;;;16.30;73.90;;;;;;5115363;28;20173;-69
2023/11/01 00:04:34;;;;;;;2.97;2.13;;;16.30;74.00;;;;;;5115305;28;20214;-68
2023/11/01 00:06:59;;;;;;;3.05;1.95;;;16.20;73.90;;;;;;5115473;28;20173;-68
2023/11/01 00:09:25;;;;;;;2.65;2.00;;;16.20;73.80;;;;;;5115882;28;20169;-67
2023/11/01 00:11:50;;;;;;;2.83;2.60;;;16.20;73.80;;;;;;5115032;28;20177;-68
2023/11/01 00:14:16;;;;;;;2.70;2.20;;;16.20;73.90;;;;;;5115312;28;20169;-69
2023/11/01 00:16:42;;;;;;;3.72;2.38;;;16.20;73.90;;;;;;5114640;28;20205;-68
2023/11/01 00:19:08;;;;;;;2.35;2.10;;;16.20;73.90;;;;;;5114022;28;20173;-68
2023/11/01 00:21:33;;;;;;;2.55;1.98;;;16.30;74.00;;;;;;5115617;28;20181;-68
2023/11/01 00:23:59;;;;;;;2.40;2.20;;;16.20;73.90;;;;;;5114282;28;20186;-68
2023/11/01 00:26:24;;;;;;;2.33;2.13;;;16.20;73.90;;;;;;5115382;28;20185;-69
2023/11/01 00:28:50;;;;;;;3.50;2.70;;;16.20;73.90;;;;;;5115342;28;20169;-69
2023/11/01 00:31:16;;;;;;;2.30;2.10;;;16.20;73.90;;;;;;5114164;28;20181;-70
2023/11/01 00:33:42;;;;;;;3.60;2.30;;;16.20;73.90;;;;;;5115073;28;20197;-70
2023/11/01 00:36:08;;;;;;;2.33;2.13;;;16.20;73.90;;;;;;5114701;28;20242;-69
2023/11/01 00:38:35;;;;;;;3.33;2.20;;;16.20;73.80;;;;;;5114668;28;20179;-69
2023/11/01 00:41:04;;;;;;;3.65;2.20;;;16.20;73.90;;;;;;5114820;28;20268;-68
2023/11/01 00:43:30;;;;;;;2.17;2.03;;;16.20;73.90;;;;;;5114973;28;20215;-69
2023/11/01 00:45:56;;;;;;;2.15;1.95;;;16.20;73.90;;;;;;5114095;28;20177;-70
2023/11/01 00:48:21;;;;;;;2.95;2.25;;;16.20;73.90;;;;;;5114376;28;20232;-70
2023/11/01 00:50:47;;;;;;;3.22;2.20;;;16.20;73.90;;;;;;5114901;28;20173;-69
2023/11/01 00:53:15;;;;;;;2.08;1.73;;;16.20;73.90;;;;;;5113902;28;20164;-69
2023/11/01 00:55:40;;;;;;;2.35;2.10;;;16.20;73.90;;;;;;5114552;28;20204;-69
2023/11/01 00:58:06;;;;;;;3.25;2.25;;;16.20;73.90;;;;;;5114295;28;20181;-69
2023/11/01 01:00:31;;;;;;;2.17;1.98;;;16.20;73.90;;;;;;5113879;28;20177;-69
2023/11/01 01:02:57;;;;;;;2.03;1.83;;;16.20;73.90;;;;;;5114919;28;20273;-69
2023/11/01 01:05:23;;;;;;;3.70;2.40;;;16.20;73.90;;;;;;5114657;28;20256;-69
2023/11/01 01:07:49;;;;;;;3.10;2.30;;;16.20;73.90;;;;;;5113969;28;20255;-69
2023/11/01 01:10:15;;;;;;;2.28;1.73;;;16.10;73.90;;;;;;5114204;28;20218;-68
2023/11/01 01:12:40;;;;;;;2.38;2.17;;;16.20;73.90;;;;;;5114264;28;20177;-68
2023/11/01 01:15:08;;;;;;;2.33;2.13;;;16.20;73.90;;;;;;5113233;28;20272;-69
2023/11/01 01:17:34;;;;;;;2.92;1.85;;;16.20;73.90;;;;;;5114250;28;20216;-68
2023/11/01 01:19:59;;;;;;;2.15;1.95;;;16.20;73.90;;;;;;5113254;28;20173;-68
2023/11/01 01:22:25;;;;;;;2.55;2.30;;;16.20;73.90;;;;;;5114358;28;20179;-68
2023/11/01 01:24:50;;;;;;;2.88;2.10;;;16.20;73.90;;;;;;5096118;28;20173;-68
2023/11/01 01:27:16;;;;;;;3.15;2.10;;;16.20;73.90;;;;;;5112978;28;20642;-69
2023/11/01 01:29:41;;;;;;;2.28;2.08;;;16.10;73.90;;;;;;5114063;28;20176;-69
2023/11/01 01:32:07;;;;;;;3.13;1.98;;;16.20;73.90;;;;;;5113734;28;20552;-69
2023/11/01 01:34:33;;;;;;;2.60;2.20;;;16.10;73.80;;;;;;5113442;28;20169;-69
2023/11/01 01:36:58;;;;;;;2.28;2.08;;;16.10;73.90;;;;;;5113626;28;20232;-69
2023/11/01 01:39:24;;;;;;;3.40;2.60;;;16.10;73.80;;;;;;5113915;28;20687;-69
2023/11/01 01:41:49;;;;;;;2.13;1.98;;;16.10;73.80;;;;;;5113104;28;20264;-69
2023/11/01 01:44:15;;;;;;;2.58;1.92;;;16.10;73.80;;;;;;5113723;28;20192;-69
2023/11/01 01:46:40;;;;;;;2.15;1.90;;;16.10;73.90;;;;;;5113836;28;20519;-69
2023/11/01 01:49:06;;;;;;;2.10;1.88;;;16.10;73.90;;;;;;5077486;28;20224;-69
2023/11/01 01:51:31;;;;;;;2.05;1.85;;;16.10;73.90;;;;;;5113707;28;20209;-69
2023/11/01 01:53:57;;;;;;;3.33;1.80;;;16.10;73.90;;;;;;5095660;28;20169;-69
2023/11/01 01:56:22;;;;;;;2.20;1.90;;;16.10;73.80;;;;;;5112571;28;20196;-69
2023/11/01 01:58:50;;;;;;;2.35;1.83;;;16.10;73.90;;;;;;5078667;28;20183;-69
2023/11/01 02:01:16;;;;;;;2.40;2.20;;;16.10;73.80;;;;;;5095577;28;20173;-68
2023/11/01 02:03:41;;;;;;;1.80;1.70;;;16.10;73.90;;;;;;5094791;28;20260;-68
2023/11/01 02:06:07;;;;;;;2.50;2.30;;;16.10;73.80;;;;;;5113299;28;20218;-67
2023/11/01 02:08:39;;;;;;;2.25;2.05;;;16.10;73.90;;;;;;5113503;28;20184;-69
2023/11/01 02:11:04;;;;;;;2.03;1.83;;;16.10;73.90;;;;;;5112363;28;20186;-68
2023/11/01 02:13:30;;;;;;;2.03;1.83;;;16.10;73.90;;;;;;5113659;28;20621;-68
2023/11/01 02:15:56;;;;;;;2.60;2.20;;;16.10;73.90;;;;;;5113513;28;20325;-69
2023/11/01 02:18:21;;;;;;;2.78;1.70;;;16.10;73.90;;;;;;5112295;28;20238;-68
2023/11/01 02:20:47;;;;;;;3.95;1.80;;;16.10;73.90;;;;;;5113292;28;20173;-69
2023/11/01 02:23:14;;;;;;;2.42;2.10;;;16.10;73.90;;;;;;5113037;28;20183;-68
2023/11/01 02:25:40;;;;;;;2.33;1.70;;;16.10;73.90;;;;;;5112756;28;20195;-68
2023/11/01 02:28:06;;;;;;;1.98;1.88;;;16.10;73.90;;;;;;5113109;28;20177;-69
2023/11/01 02:30:32;;;;;;;2.38;1.90;;;16.10;73.90;;;;;;5112666;28;20187;-69
2023/11/01 02:33:00;;;;;;;2.50;2.00;;;16.10;73.90;;;;;;5113130;28;20573;-70
2023/11/01 02:35:25;;;;;;;1.52;1.42;;;16.10;73.90;;;;;;5113093;28;20627;-69
2023/11/01 02:37:51;;;;;;;2.45;1.95;;;16.10;73.90;;;;;;5112456;28;20177;-68
2023/11/01 02:40:17;;;;;;;3.78;1.88;;;16.00;73.80;;;;;;5112801;28;20165;-69
2023/11/01 02:42:43;;;;;;;2.55;1.65;;;16.00;73.80;;;;;;5115405;28;20181;-69
2023/11/01 02:45:09;;;;;;;2.95;2.35;;;16.10;73.90;;;;;;5116374;28;20177;-69
2023/11/01 02:47:44;;;;;;;3.40;1.92;;;16.10;73.80;;;;;;5116963;28;20220;-69
2023/11/01 02:50:13;;;;;;;3.00;2.08;;;16.00;73.80;;;;;;5117026;28;20270;-69
2023/11/01 02:52:39;;;;;;;1.83;1.70;;;16.00;73.90;;;;;;5116228;28;20201;-69
2023/11/01 02:55:08;;;;;;;2.17;1.92;;;16.00;73.80;;;;;;5116698;28;20215;-69
2023/11/01 02:57:33;;;;;;;1.90;1.80;;;16.00;73.80;;;;;;5117170;28;20299;-68
2023/11/01 02:59:59;;;;;;;1.65;1.55;;;16.10;73.90;;;;;;5116158;28;20200;-68
2023/11/01 03:02:25;;;;;;;2.72;1.80;;;16.00;73.80;;;;;;5117089;28;20260;-68
2023/11/01 03:04:50;;;;;;;2.42;1.85;;;16.00;73.90;;;;;;5117043;28;20184;-68
2023/11/01 03:07:16;;;;;;;2.58;1.80;;;16.00;73.80;;;;;;5115775;28;20177;-68
2023/11/01 03:09:42;;;;;;;1.85;1.75;;;16.00;73.80;;;;;;5116805;28;20173;-68
2023/11/01 03:12:07;;;;;;;2.10;1.90;;;16.00;73.80;;;;;;5116661;28;20234;-68
2023/11/01 03:14:33;;;;;;;2.08;1.95;;;16.00;73.90;;;;;;5116178;28;20169;-69
2023/11/01 03:16:59;;;;;;;2.58;1.70;;;16.00;73.80;;;;;;5116209;28;20303;-68
2023/11/01 03:19:24;;;;;;;1.98;1.60;;;16.00;73.90;;;;;;5116739;28;20180;-68
2023/11/01 03:21:50;;;;;;;2.05;1.70;;;16.00;73.80;;;;;;5115792;28;20169;-68
2023/11/01 03:24:15;;;;;;;1.70;1.60;;;16.00;73.70;;;;;;5116180;28;20160;-68
2023/11/01 03:26:42;;;;;;;1.92;1.70;;;16.00;73.80;;;;;;5115747;28;20177;-69
2023/11/01 03:29:07;;;;;;;1.50;1.40;;;16.00;73.80;;;;;;5116362;28;20253;-69
2023/11/01 03:31:36;;;;;;;1.95;1.85;;;16.00;73.90;;;;;;5116512;28;20252;-68
2023/11/01 03:34:01;;;;;;;2.35;1.50;;;16.00;73.90;;;;;;5115461;28;20173;-69
2023/11/01 03:36:27;;;;;;;2.85;1.40;;;16.00;73.80;;;;;;5116803;28;20209;-69
2023/11/01 03:38:52;;;;;;;2.50;1.73;;;16.00;73.80;;;;;;5116171;28;20624;-69
2023/11/01 03:41:17;;;;;;;1.98;1.85;;;16.00;73.80;;;;;;5115102;28;20185;-69
2023/11/01 03:43:43;;;;;;;2.40;1.58;;;16.00;73.80;;;;;;5116244;28;20173;-69
2023/11/01 03:46:12;;;;;;;2.17;1.88;;;16.00;73.80;;;;;;5115847;28;20185;-70
2023/11/01 03:48:38;;;;;;;2.55;1.85;;;16.00;73.80;;;;;;5115271;28;20279;-69
2023/11/01 03:51:04;;;;;;;1.77;1.60;;;16.00;73.80;;;;;;5115513;28;20169;-69
2023/11/01 03:53:30;;;;;;;1.77;1.40;;;16.00;73.80;;;;;;5115976;28;20276;-69
2023/11/01 03:55:56;;;;;;;1.50;1.40;;;16.00;73.80;;;;;;5115168;28;20245;-69
2023/11/01 03:58:22;;;;;;;2.42;1.42;;;16.00;73.80;;;;;;5115837;28;20173;-68
2023/11/01 04:00:48;;;;;;;2.08;1.60;;;16.00;73.80;;;;;;5115924;28;20654;-68
2023/11/01 04:03:13;;;;;;;2.15;1.70;;;16.00;73.90;;;;;;5114813;28;20185;-69
2023/11/01 04:05:39;;;;;;;1.92;1.33;;;16.00;73.90;;;;;;5115709;28;20172;-68
2023/11/01 04:08:05;;;;;;;1.60;1.50;;;16.00;73.90;;;;;;5115582;28;20170;-69
2023/11/01 04:10:30;;;;;;;1.80;1.70;;;16.00;73.80;;;;;;5115112;28;20703;-68
2023/11/01 04:12:56;;;;;;;1.63;1.33;;;16.00;73.90;;;;;;5115848;28;20181;-69
2023/11/01 04:15:21;;;;;;;2.15;1.70;;;15.90;73.80;;;;;;5115267;28;20173;-69
2023/11/01 04:17:48;;;;;;;2.83;1.58;;;15.90;73.80;;;;;;5115032;28;20226;-69
2023/11/01 04:20:14;;;;;;;2.15;1.55;;;16.00;73.90;;;;;;5115281;28;20186;-68
2023/11/01 04:22:39;;;;;;;4.70;2.15;;;16.00;73.90;;;;;;5115614;28;20180;-68
2023/11/01 04:25:05;;;;;;;4.10;2.05;;;16.00;73.80;;;;;;5114560;28;20169;-69
2023/11/01 04:27:39;;;;;;;2.13;1.90;;;16.00;73.90;;;;;;5115795;28;20196;-69
2023/11/01 04:30:08;;;;;;;1.77;1.42;;;15.90;73.70;;;;;;5114439;28;20173;-69
2023/11/01 04:32:37;;;;;;;1.67;1.40;;;15.90;73.80;;;;;;5115169;28;20177;-69
2023/11/01 04:35:03;;;;;;;1.40;1.30;;;15.90;73.80;;;;;;5114739;28;20165;-69
2023/11/01 04:37:29;;;;;;;2.05;1.85;;;16.00;73.80;;;;;;5114464;28;20619;-69
2023/11/01 04:39:56;;;;;;;1.70;1.52;;;15.90;74.60;;;;;;5115182;28;20612;-69
2023/11/01 04:42:22;;;;;;;1.73;1.30;;;15.90;73.80;;;;;;5114801;28;20174;-69
2023/11/01 04:44:47;;;;;;;2.65;1.80;;;15.90;73.80;;;;;;5114433;28;20286;-69
2023/11/01 04:47:13;;;;;;;1.40;1.30;;;16.00;73.80;;;;;;5114505;28;20244;-69
2023/11/01 04:49:38;;;;;;;1.63;1.48;;;15.90;73.80;;;;;;5115104;28;20177;-69
2023/11/01 04:52:06;;;;;;;1.73;1.20;;;16.00;73.90;;;;;;5114075;28;20172;-69
2023/11/01 04:54:33;;;;;;;1.65;1.50;;;16.00;73.90;;;;;;5114760;28;20264;-69
2023/11/01 04:56:59;;;;;;;1.40;1.30;;;15.90;73.80;;;;;;5114495;28;20220;-69
2023/11/01 04:59:29;;;;;;;1.50;1.40;;;16.00;73.90;;;;;;5114004;28;20180;-68
2023/11/01 05:01:58;;;;;;;1.52;1.15;;;15.90;73.80;;;;;;5114720;28;20221;-69
2023/11/01 05:04:24;;;;;;;1.15;1.10;;;16.00;73.90;;;;;;5114021;28;20624;-68
2023/11/01 05:06:50;;;;;;;2.13;1.55;;;15.90;73.80;;;;;;5114068;28;20185;-69
2023/11/01 05:09:19;;;;;;;1.90;1.30;;;16.00;73.90;;;;;;5114244;28;20524;-68
2023/11/01 05:11:46;;;;;;;1.90;1.30;;;15.90;73.90;;;;;;5114471;28;20177;-68
2023/11/01 05:14:11;;;;;;;3.40;1.67;;;15.90;73.80;;;;;;5113443;28;20169;-69
2023/11/01 05:16:37;;;;;;;1.40;1.20;;;15.90;73.90;;;;;;5114251;28;20567;-68
2023/11/01 05:19:08;;;;;;;2.28;1.58;;;15.90;73.90;;;;;;5114212;28;20169;-69
2023/11/01 05:21:33;;;;;;;1.45;1.30;;;15.90;73.90;;;;;;5114538;28;20169;-68
2023/11/01 05:23:59;;;;;;;1.50;1.40;;;15.90;73.90;;;;;;5114078;28;20170;-68
2023/11/01 05:26:24;;;;;;;1.35;1.27;;;15.90;73.90;;;;;;5113476;28;20165;-69
2023/11/01 05:28:50;;;;;;;1.60;1.20;;;15.90;73.90;;;;;;5114166;28;20172;-69
2023/11/01 05:31:15;;;;;;;1.35;1.20;;;15.90;73.90;;;;;;5113636;28;20180;-70
2023/11/01 05:33:41;;;;;;;2.35;1.55;;;15.90;73.90;;;;;;5113601;28;20170;-68
2023/11/01 05:36:09;;;;;;;1.48;1.30;;;15.90;73.90;;;;;;5113807;28;20201;-69
2023/11/01 05:38:35;;;;;;;1.80;1.33;;;15.90;73.90;;;;;;5114028;28;20184;-69
2023/11/01 05:41:00;;;;;;;1.60;1.48;;;15.90;73.90;;;;;;5112865;28;20169;-68
2023/11/01 05:43:26;;;;;;;1.63;1.38;;;15.90;73.90;;;;;;5113832;28;20184;-69
2023/11/01 05:45:51;;;;;;;1.25;1.15;;;15.90;73.90;;;;;;5113695;28;20177;-69
2023/11/01 05:48:18;;;;;;;2.25;1.40;;;15.90;73.90;;;;;;5112795;28;20233;-70
2023/11/01 05:50:44;;;;;;;1.85;1.52;;;15.90;73.90;;;;;;5113628;28;20172;-69
2023/11/01 05:53:10;;;;;;;1.48;1.35;;;15.90;73.90;;;;;;5113504;28;20169;-69
2023/11/01 05:55:37;;;;;;;1.83;1.40;;;15.90;73.90;;;;;;5112977;28;20244;-69
2023/11/01 05:58:07;;;;;;;1.50;1.40;;;15.90;73.90;;;;;;5113352;28;20185;-69
2023/11/01 06:00:35;;;;;;;1.40;1.30;;;15.90;73.90;;;;;;5113631;28;20173;-68
2023/11/01 06:03:01;;;;;;;1.65;1.25;;;15.90;73.90;;;;;;5112730;28;20173;-68
2023/11/01 06:05:26;;;;;;;1.23;1.13;;;15.90;73.90;;;;;;5113706;28;20217;-68
2023/11/01 06:07:55;;;;;;;2.03;1.55;;;15.90;73.90;;;;;;5113406;28;20221;-68
2023/11/01 06:10:21;;;;;;;1.42;1.30;;;15.90;73.90;;;;;;5112329;28;20168;-69
2023/11/01 06:12:46;;;;;;;1.63;1.13;;;15.90;73.90;;;;;;5113378;28;20236;-68
2023/11/01 06:15:13;;;;;;;1.00;1.00;;;15.90;73.90;;;;;;5113230;28;20167;-67
2023/11/01 06:17:39;;;;;;;1.63;1.40;;;15.90;73.90;;;;;;5111892;28;20646;-67
2023/11/01 06:20:08;;;;;;;1.20;1.10;;;15.90;74.00;;;;;;5112944;28;20674;-68
2023/11/01 06:22:34;;;;;;;1.48;1.30;;;15.90;74.00;;;;;;5112662;28;20181;-68
2023/11/01 06:25:00;;;;;;;1.58;1.15;;;15.90;74.00;;;;;;5113080;28;20627;-69
2023/11/01 06:27:26;;;;;;;1.20;1.10;;;15.90;74.00;;;;;;5113050;28;20206;-68
2023/11/01 06:29:52;;;;;;;1.50;1.30;;;15.90;74.00;;;;;;5112564;28;20169;-68
2023/11/01 06:32:18;;;;;;;1.00;0.90;;;15.90;74.00;;;;;;5112661;28;20238;-69
2023/11/01 06:34:43;;;;;;;2.15;1.13;;;15.90;74.00;;;;;;5113070;28;20568;-68
2023/11/01 06:37:09;;;;;;;1.80;1.30;;;15.90;74.00;;;;;;5112041;28;20213;-68
2023/11/01 06:39:34;;;;;;;1.40;1.30;;;15.90;74.00;;;;;;5113092;28;20164;-67
2023/11/01 06:42:00;;;;;;;1.73;1.27;;;15.90;74.00;;;;;;5112687;28;20537;-68
2023/11/01 06:44:26;;;;;;;1.15;1.02;;;15.90;74.00;;;;;;5112210;28;20612;-68
2023/11/01 06:46:52;;;;;;;1.30;1.20;;;15.90;74.00;;;;;;5113262;28;20263;-68
2023/11/01 06:49:18;;;;;;;1.50;1.20;;;15.90;74.00;;;;;;5112570;28;20236;-68
2023/11/01 06:51:43;;;;;;;1.77;1.20;;;15.80;73.90;;;;;;5112346;28;20635;-67
2023/11/01 06:54:09;;;;;;;3.58;1.30;;;15.90;74.00;;;;;;5112742;28;20161;-68
2023/11/01 06:56:34;;;;;;;1.30;1.20;;;15.90;74.00;;;;;;5112875;28;20683;-67
2023/11/01 06:59:00;;;;;;;1.48;1.25;;;15.90;74.00;;;;;;5112346;28;20173;-67
2023/11/01 07:01:26;;;;;;;1.30;1.20;;;15.90;74.00;;;;;;5112962;28;20184;-67
2023/11/01 07:03:51;;;;;;;1.23;1.13;;;15.90;74.10;;;;;;5113029;28;20173;-67
2023/11/01 07:06:17;;;;;;;1.35;1.25;;;15.90;74.00;;;;;;5111970;28;20550;-68
2023/11/01 07:08:42;;;;;;;1.50;1.40;;;15.90;74.10;;;;;;5112807;28;20201;-67
2023/11/01 07:11:09;;;;;;;1.23;1.13;;;15.90;74.10;;;;;;5112604;28;20169;-67
2023/11/01 07:13:35;;;;;;;1.70;1.35;;;16.00;74.30;;;;;;5112160;28;20215;-68
2023/11/01 07:16:00;;;;;;;1.80;1.15;;;16.10;74.20;;;;;;5112652;28;20240;-67
2023/11/01 07:18:26;;;;;;;2.67;1.30;;;16.20;74.00;;;;;;5112974;28;20632;-67
2023/11/01 07:20:52;;;;;;;1.65;1.00;;;16.30;73.90;;;;;;5112263;28;20624;-67
2023/11/01 07:23:17;;;;;;;1.80;1.02;;;16.50;73.70;;;;;;5112358;28;20205;-67
2023/11/01 07:25:43;;;;;;;2.00;0.80;;;16.60;73.40;;;;;;5112123;28;20177;-68
2023/11/01 07:28:08;;;;;;;0.70;0.70;;;16.80;73.00;;;;;;5113795;28;20173;-68
2023/11/01 07:30:35;;;;;;;1.48;0.95;;;17.00;72.40;;;;;;5116546;28;20620;-68
2023/11/01 07:33:01;;;;;;;1.05;0.80;;;17.20;71.80;;;;;;5115382;28;20253;-68
2023/11/01 07:35:26;;;;;;;1.20;1.10;;;17.40;71.20;;;;;;5116391;28;20231;-67
2023/11/01 07:37:52;;;;;;;2.05;1.08;;;17.50;70.90;;;;;;5116248;28;20213;-68
2023/11/01 07:40:17;;;;;;;1.92;1.17;;;17.60;70.40;;;;;;5115130;28;20234;-67
2023/11/01 07:42:45;;;;;;;2.42;1.10;;;17.80;70.20;;;;;;5116197;28;20181;-68
2023/11/01 07:45:10;;;;;;;0.90;0.73;;;17.80;69.80;;;;;;5115818;28;20609;-68
2023/11/01 07:47:38;;;;;;;1.73;1.00;;;17.80;69.70;;;;;;5115442;28;20334;-68
2023/11/01 07:50:04;;;;;;;1.52;1.00;;;17.90;69.60;;;;;;5115823;28;20177;-68
2023/11/01 07:52:30;;;;;;;0.98;0.93;;;18.00;69.40;;;;;;5115839;28;20632;-68
2023/11/01 07:54:55;;;;;;;2.97;1.08;;;18.00;69.30;;;;;;5115139;28;20258;-68
2023/11/01 07:57:22;;;;;;;2.70;1.00;;;18.00;69.30;;;;;;5115633;28;20293;-68
2023/11/01 07:59:47;;;;;;;1.45;1.00;;;17.90;69.40;;;;;;5115916;28;20223;-67
2023/11/01 08:02:13;;;;;;;1.00;0.90;;;17.90;69.70;;;;;;5114962;28;20176;-68
2023/11/01 08:04:38;;;;;;;2.97;0.88;;;17.80;69.90;;;;;;5115819;28;20214;-67
2023/11/01 08:07:04;;;;;;;1.05;0.85;;;17.70;70.10;;;;;;5115430;28;20703;-67
2023/11/01 08:09:29;;;;;;;1.65;1.27;;;17.60;70.20;;;;;;5114981;28;20177;-67
2023/11/01 08:11:55;;;;;;;2.78;1.00;;;17.60;70.40;;;;;;5115848;28;20177;-68
2023/11/01 08:14:20;;;;;;;1.58;1.00;;;17.50;70.70;;;;;;5115419;28;20564;-67
2023/11/01 08:16:47;;;;;;;2.83;1.10;;;17.50;70.90;;;;;;5114932;28;20219;-67
2023/11/01 08:19:14;;;;;;;1.08;0.98;;;17.40;71.10;;;;;;5097207;28;20191;-69
2023/11/01 08:21:40;;;;;;;1.35;1.13;;;17.30;71.20;;;;;;5115449;28;20173;-67
2023/11/01 08:24:06;;;;;;;1.00;0.90;;;17.30;71.30;;;;;;5114279;28;20172;-68
2023/11/01 08:26:32;;;;;;;1.90;0.90;;;17.20;71.50;;;;;;5115438;28;20196;-68
2023/11/01 08:28:57;;;;;;;2.20;1.00;;;17.20;71.70;;;;;;5115446;28;20197;-68
2023/11/01 08:31:23;;;;;;;1.25;1.10;;;17.10;71.80;;;;;;5114437;28;20609;-68
2023/11/01 08:33:49;;;;;;;2.33;1.00;;;17.10;71.80;;;;;;5115200;28;20173;-70
2023/11/01 08:36:14;;;;;;;1.48;1.35;;;17.10;72.80;;;;;;5114115;28;20603;-69
2023/11/01 08:38:40;;;;;;;1.35;0.95;;;17.10;72.00;;;;;;5115023;28;20181;-68
2023/11/01 08:41:05;;;;;;;2.67;1.20;;;17.10;72.00;;;;;;5113839;28;20526;-68
2023/11/01 08:43:32;;;;;;;3.17;1.20;;;17.10;72.00;;;;;;5114510;28;20173;-68
2023/11/01 08:45:57;;;;;;;2.60;1.30;;;17.00;72.10;;;;;;5114644;28;20532;-69
2023/11/01 08:48:23;;;;;;;3.33;1.77;;;17.00;72.10;;;;;;5114537;28;20217;-69
2023/11/01 08:50:48;;;;;;;1.90;0.90;;;17.00;72.20;;;;;;5114068;28;20185;-68
2023/11/01 08:53:15;;;;;;;1.83;1.00;;;17.00;72.30;;;;;;5114673;28;20199;-68
2023/11/01 08:55:40;;;;;;;1.60;0.90;;;16.90;72.30;;;;;;5114667;28;20608;-69
2023/11/01 08:58:06;;;;;;;1.73;1.00;;;17.00;72.40;;;;;;5113619;28;20184;-69
2023/11/01 09:00:32;;;;;;;2.72;1.20;;;17.00;72.40;;;;;;5114813;28;20171;-68
2023/11/01 09:02:57;;;;;;;1.60;1.20;;;17.00;72.40;;;;;;5114560;28;20918;-68
2023/11/01 09:05:23;;;;;;;2.05;1.00;;;17.00;72.30;;;;;;5113691;28;20615;-67
2023/11/01 09:07:48;;;;;;;2.58;0.77;;;17.00;72.20;;;;;;5114355;28;20639;-68
2023/11/01 09:10:14;;;;;;;2.30;1.00;;;17.00;72.20;;;;;;5114323;28;20173;-68
2023/11/01 09:12:39;;;;;;;2.85;1.13;;;17.10;72.40;;;;;;5113857;28;20169;-67
2023/11/01 09:15:05;;;;;;;1.73;1.20;;;17.00;72.30;;;;;;5114121;28;20188;-68
2023/11/01 09:17:31;;;;;;;2.17;1.30;;;16.90;72.30;;;;;;5114156;28;20262;-68
2023/11/01 09:19:56;;;;;;;1.40;0.93;;;16.90;72.40;;;;;;5113557;28;20200;-68
2023/11/01 09:22:22;;;;;;;1.30;1.10;;;16.90;72.50;;;;;;5113864;28;20579;-67
2023/11/01 09:24:47;;;;;;;2.25;1.00;;;16.90;72.60;;;;;;5114304;28;20278;-67
2023/11/01 09:27:13;;;;;;;1.08;0.98;;;16.90;72.60;;;;;;5113311;28;20180;-68
2023/11/01 09:29:38;;;;;;;1.88;1.17;;;17.00;72.60;;;;;;5114229;28;20181;-68
2023/11/01 09:32:04;;;;;;;1.60;0.90;;;17.00;72.40;;;;;;5113876;28;20280;-69
2023/11/01 09:34:30;;;;;;;1.77;1.05;;;17.00;72.40;;;;;;5113258;28;20612;-67
2023/11/01 09:36:56;;;;;;;2.25;1.20;;;17.00;72.30;;;;;;5113755;28;20296;-68
2023/11/01 09:39:21;;;;;;;2.67;1.10;;;17.00;72.30;;;;;;5112796;28;20662;-67
2023/11/01 09:41:59;;;;;;;2.55;1.10;;;17.00;72.20;;;;;;5114124;28;20177;-68
2023/11/01 09:44:24;;;;;;;1.48;0.90;;;17.00;72.30;;;;;;5096987;28;20211;-69
2023/11/01 09:46:50;;;;;;;1.40;1.00;;;17.00;72.30;;;;;;5078250;28;20209;-68
2023/11/01 09:49:16;;;;;;;2.35;1.00;;;17.00;72.40;;;;;;5113040;28;20244;-68
2023/11/01 09:51:42;;;;;;;1.58;0.93;;;17.00;72.50;;;;;;5113534;28;20219;-67
2023/11/01 09:54:14;;;;;;;3.05;1.17;;;16.90;72.50;;;;;;5112832;28;20196;-68
2023/11/01 09:56:43;;;;;;;1.83;1.10;;;16.90;72.50;;;;;;5113749;28;20223;-68
2023/11/01 09:59:09;;;;;;;1.52;1.00;;;16.90;72.60;;;;;;5113370;28;20196;-67
2023/11/01 10:01:36;;;;;;;2.33;0.95;;;16.90;72.60;;;;;;5112822;28;20199;-67
2023/11/01 10:04:01;;;;;;;2.03;1.08;;;16.90;72.70;;;;;;5113096;28;20643;-69
2023/11/01 10:06:27;;;;;;;1.40;1.00;;;16.90;72.60;;;;;;5113770;28;20272;-69
2023/11/01 10:08:52;;;;;;;2.20;1.10;;;16.90;72.60;;;;;;5112598;28;20226;-69
2023/11/01 10:11:21;;;;;;;2.33;1.10;;;16.90;72.60;;;;;;5113347;28;20192;-69
2023/11/01 10:13:47;;;;;;;1.63;0.85;;;16.90;72.60;;;;;;5113305;28;20646;-70
2023/11/01 10:16:13;;;;;;;2.30;1.10;;;16.90;72.70;;;;;;5112201;28;20535;-69
2023/11/01 10:18:39;;;;;;;1.98;1.00;;;16.90;72.70;;;;;;5113202;28;20658;-70
2023/11/01 10:21:05;;;;;;;1.50;1.00;;;16.90;72.70;;;;;;5113204;28;20210;-68
2023/11/01 10:23:30;;;;;;;3.05;1.05;;;16.90;72.80;;;;;;5112806;28;20503;-67
2023/11/01 10:25:56;;;;;;;1.23;0.98;;;16.90;72.80;;;;;;5113174;28;20531;-68
2023/11/01 10:28:22;;;;;;;3.15;1.08;;;16.80;72.80;;;;;;5112816;28;20169;-68
2023/11/01 10:30:48;;;;;;;2.38;1.10;;;16.80;72.90;;;;;;5112589;28;20230;-69
2023/11/01 10:33:14;;;;;;;1.60;1.00;;;16.80;72.90;;;;;;5112848;28;20512;-69
2023/11/01 10:35:40;;;;;;;2.05;0.98;;;16.80;72.90;;;;;;5094574;28;20173;-68
2023/11/01 10:38:05;;;;;;;2.13;1.15;;;16.80;72.90;;;;;;5113048;28;20521;-68
2023/11/01 10:40:31;;;;;;;2.70;1.27;;;16.80;72.90;;;;;;5113407;28;20532;-68
2023/11/01 10:42:58;;;;;;;1.42;0.95;;;16.80;72.90;;;;;;5112632;28;20165;-70
2023/11/01 10:45:24;;;;;;;2.45;0.93;;;16.90;72.90;;;;;;5113228;28;20176;-68
2023/11/01 10:47:51;;;;;;;2.22;1.02;;;16.90;72.90;;;;;;5112953;28;20229;-69
2023/11/01 10:50:17;;;;;;;2.08;1.25;;;16.90;72.90;;;;;;5112189;28;20264;-69
2023/11/01 10:52:43;;;;;;;2.17;0.90;;;16.90;72.90;;;;;;5095089;28;20256;-69
2023/11/01 10:55:12;;;;;;;2.25;1.10;;;16.90;72.90;;;;;;5077842;28;20587;-69
2023/11/01 10:57:38;;;;;;;1.92;0.82;;;16.90;72.90;;;;;;5094761;28;20212;-67
2023/11/01 11:00:15;;;;;;;2.83;1.08;;;16.80;72.90;;;;;;5112759;28;20166;-67
2023/11/01 11:03:00;;;;;;;2.50;1.27;;;16.90;73.00;;;;;;5080311;28;20181;-67
2023/11/01 11:05:29;;;;;;;1.98;0.98;;;16.80;72.90;;;;;;5083684;28;20172;-67
2023/11/01 11:07:56;;;;;;;3.67;1.20;;;16.80;72.90;;;;;;5098716;28;20165;-67
2023/11/01 11:10:29;;;;;;;1.70;0.95;;;16.80;72.90;;;;;;5116537;28;20184;-68
2023/11/01 11:13:10;;;;;;;1.55;0.80;;;16.80;72.80;;;;;;5115923;28;20539;-67
2023/11/01 11:15:50;;;;;;;2.55;1.20;;;16.80;72.90;;;;;;5116596;28;20176;-67
2023/11/01 11:18:21;;;;;;;2.35;1.20;;;16.80;72.80;;;;;;5115708;28;20223;-67
2023/11/01 11:20:47;;;;;;;1.25;0.90;;;16.90;72.80;;;;;;5116665;28;20692;-67
2023/11/01 11:23:21;;;;;;;1.52;1.00;;;16.90;72.70;;;;;;5116329;28;20260;-67
2023/11/01 11:25:52;;;;;;;2.45;1.20;;;16.90;72.70;;;;;;5116121;28;20169;-67
2023/11/01 11:28:18;;;;;;;2.22;0.90;;;16.90;72.60;;;;;;5116439;28;20200;-69
2023/11/01 11:31:00;;;;;;;3.60;1.25;;;16.90;73.50;;;;;;5116619;28;20169;-68
2023/11/01 11:33:26;;;;;;;2.42;1.17;;;16.90;72.70;;;;;;5115739;28;20208;-68
2023/11/01 11:36:18;;;;;;;3.38;1.10;;;17.00;72.70;;;;;;5116214;28;20197;-68
2023/11/01 11:39:03;;;;;;;1.30;1.02;;;16.90;72.70;;;;;;5109298;28;20631;-67
2023/11/01 11:41:42;;;;;;;2.50;1.08;;;16.90;72.70;;;;;;5116065;28;20571;-68
2023/11/01 11:44:08;;;;;;;2.63;1.23;;;17.00;72.80;;;;;;5115983;28;20752;-69
2023/11/01 11:46:40;;;;;;;1.92;1.00;;;17.00;72.70;;;;;;5115413;28;20659;-69
2023/11/01 11:49:06;;;;;;;3.03;1.00;;;17.00;72.70;;;;;;5115579;28;20689;-70
2023/11/01 11:51:39;;;;;;;2.30;1.20;;;17.00;72.60;;;;;;5116151;28;20699;-68
2023/11/01 11:54:14;;;;;;;1.33;0.80;;;17.00;72.50;;;;;;5114992;28;20180;-69
2023/11/01 11:56:39;;;;;;;2.55;1.20;;;17.10;72.50;;;;;;5115877;28;20250;-69
2023/11/01 11:59:05;;;;;;;2.72;1.10;;;17.10;72.50;;;;;;5115760;28;20169;-68
2023/11/01 12:01:31;;;;;;;2.25;1.45;;;17.10;72.60;;;;;;5115295;28;20181;-68
2023/11/01 12:04:00;;;;;;;3.72;1.17;;;17.00;72.60;;;;;;5115877;28;20258;-68
2023/11/01 12:06:26;;;;;;;2.95;1.17;;;17.00;72.60;;;;;;5115785;28;20165;-68
2023/11/01 12:08:52;;;;;;;3.90;1.45;;;17.10;72.70;;;;;;5115099;28;20256;-69
2023/11/01 12:11:17;;;;;;;1.10;0.90;;;17.00;72.70;;;;;;5115273;28;20382;-68
2023/11/01 12:13:48;;;;;;;1.30;1.17;;;17.00;72.60;;;;;;5115355;28;20169;-69
2023/11/01 12:16:26;;;;;;;2.78;1.15;;;17.10;72.70;;;;;;5113668;28;20199;-69
2023/11/01 12:19:07;;;;;;;1.85;1.05;;;17.00;72.60;;;;;;5115814;28;20184;-68
2023/11/01 12:21:33;;;;;;;1.40;0.88;;;17.10;72.70;;;;;;5114897;28;20197;-68
2023/11/01 12:23:58;;;;;;;2.97;1.30;;;17.00;72.60;;;;;;5115367;28;20208;-69
2023/11/01 12:26:24;;;;;;;2.10;1.15;;;17.10;72.60;;;;;;5115572;28;20200;-69
2023/11/01 12:28:49;;;;;;;3.78;1.05;;;17.10;72.60;;;;;;5114529;28;20632;-70
2023/11/01 12:31:15;;;;;;;3.40;1.50;;;17.10;72.70;;;;;;5115081;28;20248;-69
2023/11/01 12:33:41;;;;;;;3.05;0.88;;;17.00;72.60;;;;;;5115186;28;20244;-69
2023/11/01 12:36:08;;;;;;;1.80;1.00;;;17.00;72.70;;;;;;5114023;28;20197;-69
2023/11/01 12:38:34;;;;;;;2.03;0.90;;;17.00;72.80;;;;;;5115357;28;20184;-69
2023/11/01 12:41:00;;;;;;;2.17;0.80;;;17.00;72.80;;;;;;5115061;28;20173;-69
2023/11/01 12:43:26;;;;;;;2.97;1.02;;;17.00;72.80;;;;;;5114323;28;20643;-70
2023/11/01 12:45:52;;;;;;;1.48;1.10;;;17.00;72.70;;;;;;5114972;28;20184;-70